Hendricks, Kentucky
Current Conditions -  °F | °C
As of 6:53 PM on Sunday 23 Nov 2014 (Local Time) from KJKL Reporting Station
Light Rain Light Rain  
Wind Chill: 56°   Ceiling: 7000
Heat Index: 56°   Visibility: 10mi
Dew Point: 51°   Wind: 8mph
Humidity: 84%   Direction: 130°SE
Pressure: 29.57"   Gusts: NA
Location:  37.7261°N, 83.0786°W
Report Text: KJKL 232353Z AUTO 13007KT 10SM -RA OVC070 13/11 A2957 RMK AO2 SLP007 P0008 60024 T01330106 10150 20117 56040
Loading
Personal Weather Stations






























Interactive Weather Map New forecast layout! Learn more

10-Day Weather Forecast

Advertisements
Track Severe Weather on mobile